Terminal Aerodrome Forecast
Issued by NWS

Home | Current Version | Previous Version | Text Only | Print | Product List | Glossary On
Versions: 1 2 3 4 5 6 7 8 9 10 11 12 13 14 15 16 17 18 19 20 21 22 23 24 25 26 27 28 29 30 31
000
FTUS44 KLIX 292342
TAFASD
TAF
KASD 292342Z 3000/3024 24003KT P6SM VCSH FEW035 BKN040
     FM300100 VRB06KT 5SM -SHRA BKN028 OVC060
     FM300145 20012KT 3SM TSRA BKN023CB OVC040
     FM300330 VRB06KT 5SM -SHRA VCTS BKN030CB BKN060
     FM300600 VRB04KT P6SM BKN080 OVC120
     FM301500 11010KT P6SM BKN040 OVC090
     FM301900 06005KT P6SM VCTS BKN030CB=

USA.gov is the U.S. government's official web portal to all federal, state and local government web resources and services.